Friday, April 29, 2016
23:36 UTC
  |  Log In   |  Register Free
Airport Search:

Hillsboro Municipal Airport
(KINJ)

Hillsboro Municipal Airport Diagram
No Airport Diagram Available

FAA data valid effective Mar 31 2016 - May 26 2016 (unless otherwise noted).

 
 
 
 
 
 
 
 
 
 
 
 
 
 
Current Aviation Weather for KINJ

Weather Summary


The most recent METAR observation for INJ was updated at: 12:55 UTC
METAR for KINJ is not available. Closest METAR is for KCPT
KINJ  (most recent observation was updatred at 29:23 UTC)
292315Z AUTO 16010KT 7SM SCT026 SCT037 26/23 A2955 RMK AO2 LTG DSNT SW AND W T02550225

KCPT  (23.6 nm SE)   (most recent observation was updated at 29:23 UTC)
292315Z AUTO 00000KT VCTS RA BKN011 BKN036 OVC080 23/23 A2956 RMK AO2 LTG DSNT ALQDS

KJWY  (24.4 nm SW)   (most recent observation was updated at 29:23 UTC)
292315Z AUTO 18009KT 4SM BR SCT018 24/24 A2955 RMK AO2 T02420240

TAF for KINJ is not available.
KACT  (29.1 nm NE)   (most recent observation was updatred at 29:20 UTC)
AMD 292057Z 2921/3018 17014KT 5SM HZ VCTS BKN030CB BKN050 TEMPO 2921/2924 3SM TSRA BKN030CB FM300100 18012KT P6SM VCTS BKN060CB FM300300 18010KT P6SM BKN080 FM300900 22010KT P6SM SCT200 FM301600 31010KT P6SM SKC


KGKY  (34.8 nm SW)   (most recent observation was updatred at 29:20 UTC)
AMD 292057Z 2921/3018 18017KT 5SM HZ VCTS SCT030 BKN060CB TEMPO 2921/2924 2SM TSRA BKN020CB FM300100 18012KT P6SM VCTS BKN060CB FM300300 18012KT P6SM BKN080 FM300900 23009KT P6SM SCT200 FM301300 31009KT P6SM SKC


GlobalAir.com is loading additional information.
 Current Weather at INJ
77.0 F° (25.0 C°)

South winds at 10.4 mph
Pressure:
29.58 in
Humidity:
87%
Wind:
South at 10.4 mph
Dew Point:
72.9 F° (22.7 C°)
Visibility:
7.00 mi
INJ NOAA Radar




Find All Airport Services Find A Hotel Find A Rental Car Find A Golf Course Find A Restaurant $100 Hamburger



Airport Weather Forecast for KINJ

Translated METAR for KINJ (2315 UTC)
METAR:
KINJ 292315Z AUTO 16010KT 7SM SCT026 SCT037 26/23 A2955 RMK AO2 LTG DSNT SW AND W T02550225
Conditions at:
KINJ (Hillsboro Muni, TX) observed 2315 UTC 29 April 2016
Temperature:
26°C (78.8°F)
Dewpoint:
23°C (73.4°F) [RH = 83.6]
Pressure:
29.55 inches Hg (1000.7 mb)
Winds:
from the SSE (160 degrees) at 11.5 mph (10 knots: 5.1 m/s)
Visibility:
7 mile(s)
Ceiling:
at least 12,000 feet AGL
Clouds:
Scattered Clouds at 2,600 feet AGL
Scattered Clouds at 3,700 feet AGL
Remarks:
site is un-manned
site is automated and HAS a precipitation sensor

Translated TAF for KACT (Waco Rgnl, TX) (2057 UTC)
TAF text:
KACT 292057Z 2921/3018 17014KT 5SM HZ VCTS BKN030CB BKN050
Forecast period:
Friday Apr 29 2016 21:00 UTC - Saturday Apr 30 2016 18:00 UTC
Forecast type:
FROM: standard forecast or significant change
Winds:
from the S (170 degrees) at 16.1 mph (14 knots: 7.2 m/s)
Visibility:
5 mile(s) (8 km)
Ceiling:
5,000 feet AGL
Clouds:
Broken Cloud Cover at 5,000 feet AGL
Weather:
Moderate Haze
TAF text:
2921/2924 3SM TSRA BKN030CB
Forecast period:
Saturday Apr 30 2016 21:00 UTC - Saturday Apr 30 2016 24:00 UTC
Forecast type:
FROM: standard forecast or significant change
Winds:
Visibility:
3 mile(s) (4.8 km)
Ceiling:
Clouds:
Weather:
Moderate Thunderstorm Rain
TAF text:
FM300100 18012KT P6SM VCTS BKN060CB
Forecast period:
Saturday Apr 30 2016 01:00 UTC - Saturday Apr 30 2016 03:00 UTC
Forecast type:
FROM: standard forecast or significant change
Winds:
from the S (180 degrees) at 13.8 mph (12 knots: 6.2 m/s)
Visibility:
6 or more mile(s) (9.7+ km)
Ceiling:
Clouds:
Weather:
Moderate In Vicinity Thunderstorm
TAF text:
FM300300 18010KT P6SM BKN080
Forecast period:
Saturday Apr 30 2016 03:00 UTC - Saturday Apr 30 2016 09:00 UTC
Forecast type:
FROM: standard forecast or significant change
Winds:
from the S (180 degrees) at 11.5 mph (10 knots: 5.1 m/s)
Visibility:
6 or more mile(s) (9.7+ km)
Ceiling:
8,000 feet AGL
Clouds:
Broken Cloud Cover at 8,000 feet AGL
Weather:
no significant weather observed at this time
TAF text:
FM300900 22010KT P6SM SCT200
Forecast period:
Saturday Apr 30 2016 09:00 UTC - Saturday Apr 30 2016 16:00 UTC
Forecast type:
FROM: standard forecast or significant change
Winds:
from the SW (220 degrees) at 11.5 mph (10 knots: 5.1 m/s)
Visibility:
6 or more mile(s) (9.7+ km)
Ceiling:
at least 12,000 feet AGL
Clouds:
Scattered Clouds at 20,000 feet AGL
Weather:
no significant weather observed at this time
TAF text:
FM301600 31010KT P6SM SKC
Forecast period:
Saturday Apr 30 2016 16:00 UTC - Saturday Apr 30 2016 18:00 UTC
Forecast type:
FROM: standard forecast or significant change
Winds:
from the NW (310 degrees) at 11.5 mph (10 knots: 5.1 m/s)
Visibility:
6 or more mile(s) (9.7+ km)
Ceiling:
at least 12,000 feet AGL
Clouds:
Clear Skies
Weather:
no significant weather observed at this time
FBO's on the Field
FBO Company Facility Photos Services Transportation Aviation Fuel Prices: Prices include tax
Catering Weather Repair Courtesy Rental Type 100LL JetA JetA+ MOGAS 8087
 
Hillsboro Municipal Airport

This FBO has not yet been rated
FS:Avfuel
Last Updated: Apr-25
Login to update fuel prices
SS:
Contact Hillsboro Municipal AirportMore FBO Information
 
Add another FBO Facility Photos Catering Weather Repair Courtesy Rental Type 100LL JetA JetA+ MOGAS 8087
Services Transportation Aviation Fuel Prices: Prices include tax


model-print
model-print
model-print
model-print